Terminal Aerodrome Forecast
Issued by NWS

Home | Current Version | Previous Version | Text Only | Print | Product List | Glossary On
Versions: 1 2 3 4 5 6 7 8 9 10 11 12 13 14 15 16
000
FTUS41 KPBZ 221142 CCA
TAFFKL
TAF COR
KFKL 221142Z 2212/2312 10005KT 3SM BR BKN080
      TEMPO 2212/2213 1/4SM FG VV001
     FM221400 10008KT P6SM BKN100
     FM230400 09010G20KT P6SM VCSH OVC020
     FM230700 09012G22KT 4SM -SHRA OVC008
      AMD NOT SKED=

USA.gov is the U.S. government's official web portal to all federal, state and local government web resources and services.